createdAt,value
2018-07-11T00:02:31.604Z,99.90
2018-07-11T00:05:05.332Z,99.90
2018-07-11T00:07:39.017Z,99.90
2018-07-11T00:10:12.740Z,99.90
2018-07-11T00:12:46.432Z,99.90
2018-07-11T00:15:20.265Z,99.90
2018-07-11T00:17:54.094Z,99.90
2018-07-11T00:20:28.491Z,99.90
2018-07-11T00:23:02.184Z,99.90
2018-07-11T00:25:35.984Z,99.90
2018-07-11T00:28:09.664Z,99.90
2018-07-11T00:30:44.308Z,99.90
2018-07-11T00:33:18.166Z,99.90
2018-07-11T00:35:52.884Z,99.90
2018-07-11T00:38:28.169Z,99.90
2018-07-11T00:41:02.030Z,99.90
2018-07-11T00:43:35.775Z,99.90
2018-07-11T00:46:10.404Z,99.90
2018-07-11T00:48:44.202Z,99.90
2018-07-11T00:51:18.058Z,99.90
2018-07-11T00:53:51.892Z,99.90
2018-07-11T00:56:25.624Z,99.90
2018-07-11T00:58:59.492Z,99.90
2018-07-11T01:01:33.278Z,99.90
2018-07-11T01:04:07.080Z,99.90
2018-07-11T01:06:40.844Z,99.90
2018-07-11T01:09:14.476Z,99.90
2018-07-11T01:11:48.107Z,99.90
2018-07-11T01:14:21.876Z,99.90
2018-07-11T01:16:55.576Z,99.90
2018-07-11T01:19:30.941Z,99.90
2018-07-11T01:22:05.540Z,99.90
2018-07-11T01:24:39.244Z,99.90
2018-07-11T01:27:13.110Z,99.90
2018-07-11T01:29:46.886Z,99.90
2018-07-11T01:32:20.684Z,99.90
2018-07-11T01:34:54.377Z,99.90
2018-07-11T01:37:28.184Z,99.90
2018-07-11T01:40:01.976Z,99.90
2018-07-11T01:42:37.968Z,99.90
2018-07-11T01:45:11.744Z,99.90
2018-07-11T01:47:45.613Z,99.90
2018-07-11T01:50:19.457Z,99.90
2018-07-11T01:52:53.287Z,99.90
2018-07-11T01:55:27.139Z,99.90
2018-07-11T01:58:00.916Z,99.90
2018-07-11T02:00:35.535Z,99.90
2018-07-11T02:03:09.460Z,99.90
2018-07-11T02:05:43.828Z,99.90
2018-07-11T02:08:18.260Z,99.90
2018-07-11T02:10:52.128Z,99.90
2018-07-11T02:13:25.943Z,99.90
2018-07-11T02:16:00.561Z,99.90
2018-07-11T02:18:34.199Z,99.90
2018-07-11T02:21:08.849Z,99.90
2018-07-11T02:23:42.571Z,99.90
2018-07-11T02:26:16.450Z,99.90
2018-07-11T02:28:50.372Z,99.90
2018-07-11T02:31:24.221Z,99.90
2018-07-11T02:33:58.057Z,99.90
2018-07-11T02:36:32.664Z,99.90
2018-07-11T02:39:06.512Z,99.90
2018-07-11T02:41:40.323Z,99.90
2018-07-11T02:44:14.937Z,99.90
2018-07-11T02:46:48.773Z,99.90
2018-07-11T02:49:23.264Z,99.90
2018-07-11T02:51:56.963Z,99.90
2018-07-11T02:54:30.801Z,99.90
2018-07-11T02:57:04.617Z,99.90
2018-07-11T02:59:38.471Z,99.90
2018-07-11T03:02:12.321Z,99.90
2018-07-11T03:04:45.968Z,99.90
2018-07-11T03:07:20.513Z,99.90
2018-07-11T03:09:54.329Z,99.90
2018-07-11T03:12:28.005Z,99.90
2018-07-11T03:15:02.666Z,99.90
2018-07-11T03:17:36.392Z,99.90
2018-07-11T03:20:10.276Z,99.90
2018-07-11T03:22:44.885Z,99.90
2018-07-11T03:25:19.500Z,99.90
2018-07-11T03:27:53.980Z,99.90
2018-07-11T03:30:27.712Z,99.90
2018-07-11T03:33:01.445Z,99.90
2018-07-11T03:35:35.138Z,99.90
2018-07-11T03:38:09.725Z,99.90
2018-07-11T03:40:44.321Z,99.90
2018-07-11T03:43:18.800Z,99.90
2018-07-11T03:45:53.359Z,99.90
2018-07-11T03:48:27.833Z,99.90
2018-07-11T03:51:01.554Z,99.90
2018-07-11T03:53:36.192Z,99.90
2018-07-11T03:56:10.141Z,99.90
2018-07-11T03:58:43.760Z,99.90
2018-07-11T04:01:17.468Z,99.90
2018-07-11T04:03:51.347Z,99.90
2018-07-11T04:06:25.248Z,99.90
2018-07-11T04:08:59.872Z,99.90
2018-07-11T04:11:33.562Z,99.90
2018-07-11T04:14:07.494Z,99.90
2018-07-11T04:16:41.876Z,99.90
2018-07-11T04:19:15.793Z,99.90
2018-07-11T04:21:50.499Z,99.90
2018-07-11T04:24:24.232Z,99.90
2018-07-11T04:26:57.934Z,99.90
2018-07-11T04:29:31.893Z,99.90
2018-07-11T04:32:05.663Z,99.90
2018-07-11T04:34:39.579Z,99.90
2018-07-11T04:37:13.292Z,99.90
2018-07-11T04:39:47.152Z,99.90
2018-07-11T04:42:20.840Z,99.90
2018-07-11T04:44:54.577Z,99.90
2018-07-11T04:47:29.014Z,99.90
2018-07-11T04:50:02.783Z,99.90
2018-07-11T04:52:37.371Z,99.90
2018-07-11T04:55:11.037Z,99.90
2018-07-11T04:57:44.826Z,99.90
2018-07-11T05:00:19.417Z,99.90
2018-07-11T05:02:53.861Z,99.90
2018-07-11T05:05:27.846Z,99.90
2018-07-11T05:08:01.737Z,99.90
2018-07-11T05:10:35.580Z,99.90
2018-07-11T05:13:10.279Z,99.90
2018-07-11T05:15:44.113Z,99.90
2018-07-11T05:18:18.220Z,99.90
2018-07-11T05:20:52.056Z,99.90
2018-07-11T05:23:26.625Z,99.90
2018-07-11T05:26:00.364Z,99.90
2018-07-11T05:28:34.336Z,99.90
2018-07-11T05:31:08.359Z,99.90
2018-07-11T05:33:42.004Z,99.90
2018-07-11T05:36:15.840Z,99.90
2018-07-11T05:38:50.327Z,99.90
2018-07-11T05:41:25.052Z,99.90
2018-07-11T05:43:58.804Z,99.90
2018-07-11T05:46:32.559Z,99.90
2018-07-11T05:49:08.033Z,99.90
2018-07-11T05:51:41.921Z,99.90
2018-07-11T05:54:15.789Z,99.90
2018-07-11T05:56:49.568Z,99.90
2018-07-11T05:59:23.467Z,99.90
2018-07-11T06:01:58.115Z,99.90
2018-07-11T06:04:31.872Z,99.90
2018-07-11T06:07:05.788Z,99.90
2018-07-11T06:09:39.706Z,99.90
2018-07-11T06:12:14.336Z,99.90
2018-07-11T06:14:48.154Z,99.90
2018-07-11T06:17:22.384Z,99.90
2018-07-11T06:19:56.130Z,99.90
2018-07-11T06:22:30.554Z,99.90
2018-07-11T06:25:04.308Z,99.90
2018-07-11T06:27:38.100Z,99.90
2018-07-11T06:30:12.229Z,99.90
2018-07-11T06:32:45.886Z,99.90
2018-07-11T06:35:20.533Z,99.90
2018-07-11T06:37:54.325Z,99.90
2018-07-11T06:40:28.076Z,99.90
2018-07-11T06:43:02.644Z,99.90
2018-07-11T06:45:36.851Z,99.90
2018-07-11T06:48:11.480Z,99.90
2018-07-11T06:50:46.081Z,99.90
2018-07-11T06:53:20.886Z,99.90
2018-07-11T06:55:54.719Z,99.90
2018-07-11T06:58:28.565Z,99.90
2018-07-11T07:01:02.449Z,99.90
2018-07-11T07:03:36.907Z,99.90
2018-07-11T07:06:10.519Z,99.90
2018-07-11T07:08:45.132Z,99.90
2018-07-11T07:11:19.766Z,99.90
2018-07-11T07:13:53.521Z,99.90
2018-07-11T07:16:27.312Z,99.90
2018-07-11T07:19:01.209Z,99.90
2018-07-11T07:21:34.966Z,99.90
2018-07-11T07:24:08.676Z,99.90
2018-07-11T07:26:42.432Z,99.90
2018-07-11T07:29:17.230Z,99.90
2018-07-11T07:31:51.825Z,99.90
2018-07-11T07:34:25.548Z,99.90
2018-07-11T07:36:59.364Z,99.90
2018-07-11T07:39:33.135Z,99.90
2018-07-11T07:42:07.774Z,99.90
2018-07-11T07:44:41.573Z,99.90
2018-07-11T07:47:15.425Z,99.90
2018-07-11T07:49:49.248Z,99.90
2018-07-11T07:52:24.552Z,99.90
2018-07-11T07:54:58.204Z,99.90
2018-07-11T07:57:32.804Z,99.90
2018-07-11T08:00:07.384Z,99.90
2018-07-11T08:02:41.493Z,99.90
2018-07-11T08:05:15.242Z,99.90
2018-07-11T08:07:49.060Z,99.90
2018-07-11T08:10:25.201Z,99.90
2018-07-11T08:12:59.105Z,99.90
2018-07-11T08:15:32.945Z,99.90
2018-07-11T08:18:07.544Z,99.90
2018-07-11T08:20:41.255Z,99.90
2018-07-11T08:26:26.341Z,99.90
2018-07-11T08:29:00.135Z,99.90
2018-07-11T08:31:33.805Z,97.00
2018-07-11T08:34:07.604Z,91.00
2018-07-11T08:36:42.279Z,86.80
2018-07-11T08:39:15.949Z,86.80
2018-07-11T08:41:49.648Z,83.90
2018-07-11T08:44:24.204Z,76.20
2018-07-11T08:46:58.798Z,86.60
2018-07-11T08:49:33.461Z,91.30
2018-07-11T08:52:07.147Z,91.30
2018-07-11T08:54:40.987Z,96.40
2018-07-11T08:57:14.800Z,99.70
2018-07-11T08:59:48.596Z,99.90
2018-07-11T09:02:23.096Z,99.90
2018-07-11T09:04:56.906Z,99.90
2018-07-11T09:07:31.518Z,99.90
2018-07-11T09:10:05.211Z,99.90
2018-07-11T09:12:38.922Z,99.90
2018-07-11T09:15:12.818Z,99.70
2018-07-11T09:17:46.777Z,98.70
2018-07-11T09:20:20.384Z,98.40
2018-07-11T09:22:54.273Z,99.00
2018-07-11T09:25:28.233Z,97.00
2018-07-11T09:28:02.096Z,96.80
2018-07-11T09:30:36.711Z,95.50
2018-07-11T09:33:11.316Z,94.60
2018-07-11T09:35:45.111Z,94.60
2018-07-11T09:38:18.920Z,92.50
2018-07-11T09:40:52.752Z,90.70
2018-07-11T09:43:26.436Z,87.00
2018-07-11T09:46:00.153Z,82.60
2018-07-11T09:48:34.899Z,79.30
2018-07-11T09:51:08.636Z,79.20
2018-07-11T09:53:43.398Z,68.10
2018-07-11T09:56:17.945Z,65.00
2018-07-11T09:58:51.582Z,64.70
2018-07-11T10:01:26.028Z,61.10
2018-07-11T10:03:59.972Z,61.00
2018-07-11T10:06:34.504Z,57.70
2018-07-11T10:09:08.883Z,58.20
2018-07-11T10:11:42.734Z,58.20
2018-07-11T10:14:16.573Z,57.00
2018-07-11T10:16:50.382Z,56.20
2018-07-11T10:19:24.932Z,59.00
2018-07-11T10:21:59.575Z,65.70
2018-07-11T10:24:33.336Z,65.60
2018-07-11T10:27:07.211Z,70.60
2018-07-11T10:29:41.762Z,74.40
2018-07-11T10:32:15.833Z,74.50
2018-07-11T10:34:50.380Z,72.40
2018-07-11T10:37:24.244Z,72.40
2018-07-11T10:39:58.871Z,69.70
2018-07-11T10:42:32.808Z,69.80
2018-07-11T10:45:06.643Z,69.50
2018-07-11T10:47:40.489Z,69.00
2018-07-11T10:50:14.321Z,71.50
2018-07-11T10:52:48.792Z,72.00
2018-07-11T10:55:22.593Z,71.10
2018-07-11T10:57:56.336Z,77.70
2018-07-11T11:00:36.668Z,81.30
2018-07-11T11:03:04.480Z,82.20
2018-07-11T11:05:39.081Z,82.00
2018-07-11T11:08:12.987Z,81.90
2018-07-11T11:10:47.596Z,83.90
2018-07-11T11:13:22.144Z,88.50
2018-07-11T11:15:55.989Z,88.00
2018-07-11T11:18:29.681Z,90.60
2018-07-11T11:21:03.516Z,88.40
2018-07-11T11:23:38.090Z,90.80
2018-07-11T11:26:12.683Z,88.70
2018-07-11T11:28:46.565Z,88.70
2018-07-11T11:31:20.443Z,90.90
2018-07-11T11:33:54.159Z,92.10
2018-07-11T11:36:28.570Z,91.50
2018-07-11T11:39:02.363Z,91.30
2018-07-11T11:41:36.798Z,91.30
2018-07-11T11:44:10.398Z,91.30
2018-07-11T11:46:44.173Z,90.20
2018-07-11T11:49:17.954Z,83.90
2018-07-11T11:51:51.713Z,81.00
2018-07-11T11:54:25.471Z,85.20
2018-07-11T11:56:59.369Z,86.50
2018-07-11T11:59:33.169Z,82.80
2018-07-11T12:02:06.948Z,76.00
2018-07-11T12:04:40.598Z,75.80
2018-07-11T12:07:14.460Z,73.70
2018-07-11T12:09:49.042Z,71.20
2018-07-11T12:12:22.868Z,71.20
2018-07-11T12:14:56.797Z,69.30
2018-07-11T12:17:31.353Z,69.30
2018-07-11T12:20:05.148Z,69.30
2018-07-11T12:22:39.684Z,65.90
2018-07-11T12:25:14.267Z,65.70
2018-07-11T12:27:48.076Z,65.90
2018-07-11T12:30:21.706Z,65.80
2018-07-11T12:32:56.388Z,69.50
2018-07-11T12:35:30.053Z,69.60
2018-07-11T12:38:03.839Z,69.90
2018-07-11T12:40:37.493Z,73.00
2018-07-11T12:43:11.554Z,69.70
2018-07-11T12:45:45.295Z,71.30
2018-07-11T12:51:15.216Z,71.40
2018-07-11T12:53:49.778Z,68.60
2018-07-11T12:56:24.368Z,67.70
2018-07-11T12:58:58.216Z,67.50
2018-07-11T13:01:32.058Z,63.70
2018-07-11T13:04:05.837Z,63.60
2018-07-11T13:06:39.559Z,62.90
2018-07-11T13:09:14.042Z,63.50
2018-07-11T13:11:47.816Z,63.50
2018-07-11T13:14:22.380Z,65.00
2018-07-11T13:16:56.989Z,65.20
2018-07-11T13:19:30.732Z,65.10
2018-07-11T13:22:05.425Z,70.10
2018-07-11T13:24:39.286Z,70.00
2018-07-11T13:27:13.709Z,70.60
2018-07-11T13:29:47.371Z,70.60
2018-07-11T13:32:21.264Z,69.60
2018-07-11T13:34:55.092Z,68.50
2018-07-11T13:37:28.826Z,70.10
2018-07-11T13:40:02.617Z,71.40
2018-07-11T13:42:36.475Z,72.30
2018-07-11T13:45:10.236Z,77.60
2018-07-11T13:47:44.700Z,79.20
2018-07-11T13:50:19.355Z,77.80
2018-07-11T13:52:53.828Z,78.50
2018-07-11T13:55:27.752Z,78.70
2018-07-11T13:58:01.414Z,76.20
2018-07-11T14:00:35.221Z,73.50
2018-07-11T14:03:09.766Z,72.80
2018-07-11T14:05:43.634Z,72.80
2018-07-11T14:08:18.103Z,72.10
2018-07-11T14:10:52.752Z,73.10
2018-07-11T14:13:32.792Z,73.10
2018-07-11T14:16:06.523Z,74.20
2018-07-11T14:18:41.176Z,71.50
2018-07-11T14:21:15.733Z,70.50
2018-07-11T14:23:49.527Z,70.50
2018-07-11T14:26:23.254Z,68.80
2018-07-11T14:28:58.009Z,68.20
2018-07-11T14:31:31.662Z,68.20
2018-07-11T14:34:06.243Z,70.90
2018-07-11T14:36:40.864Z,70.10
2018-07-11T14:39:15.520Z,69.80
2018-07-11T14:41:50.000Z,72.00
2018-07-11T14:44:24.626Z,71.90
2018-07-11T14:46:58.451Z,71.80
2018-07-11T14:49:32.193Z,72.30
2018-07-11T14:52:06.857Z,74.60
2018-07-11T14:54:40.672Z,74.60
2018-07-11T14:57:15.348Z,72.50
2018-07-11T14:59:49.116Z,72.50
2018-07-11T15:02:22.786Z,70.30
2018-07-11T15:04:56.646Z,70.50
2018-07-11T15:07:30.720Z,70.50
2018-07-11T15:10:04.406Z,70.00
2018-07-11T15:12:39.044Z,69.90
2018-07-11T15:15:13.272Z,69.90
2018-07-11T15:17:47.487Z,68.00
2018-07-11T15:20:21.590Z,68.20
2018-07-11T15:22:55.876Z,65.80
2018-07-11T15:25:29.621Z,65.90
2018-07-11T15:28:03.493Z,67.20
2018-07-11T15:30:37.425Z,65.60
2018-07-11T15:33:11.985Z,61.40
2018-07-11T15:35:46.295Z,61.50
2018-07-11T15:38:20.398Z,61.80
2018-07-11T15:40:54.195Z,61.60
2018-07-11T15:43:28.216Z,59.70
2018-07-11T15:46:02.884Z,56.30
2018-07-11T15:48:37.456Z,56.70
2018-07-11T15:51:11.380Z,56.90
2018-07-11T15:53:45.026Z,56.10
2018-07-11T15:56:20.345Z,56.30
2018-07-11T15:58:54.183Z,56.20
2018-07-11T16:01:29.049Z,56.20
2018-07-11T16:04:03.569Z,56.10
2018-07-11T16:06:37.401Z,56.10
2018-07-11T16:09:11.969Z,58.20
2018-07-11T16:11:46.622Z,58.70
2018-07-11T16:14:20.477Z,58.20
2018-07-11T16:16:54.496Z,57.30
2018-07-11T16:19:28.228Z,57.40
2018-07-11T16:22:01.872Z,57.20
2018-07-11T16:24:36.398Z,57.40
2018-07-11T16:27:10.410Z,57.40
2018-07-11T16:29:44.330Z,56.70
2018-07-11T16:32:18.001Z,56.70
2018-07-11T16:34:51.933Z,56.30
2018-07-11T16:37:26.557Z,56.60
2018-07-11T16:40:00.184Z,56.50
2018-07-11T16:42:33.917Z,56.10
2018-07-11T16:45:07.749Z,55.70
2018-07-11T16:47:42.395Z,55.70
2018-07-11T16:50:17.029Z,55.10
2018-07-11T16:52:51.505Z,54.50
2018-07-11T16:55:26.044Z,54.80
2018-07-11T16:57:59.924Z,54.80
2018-07-11T17:00:33.663Z,54.70
2018-07-11T17:03:07.463Z,54.30
2018-07-11T17:05:41.347Z,54.20
2018-07-11T17:08:15.210Z,54.30
2018-07-11T17:10:49.164Z,55.00
2018-07-11T17:13:23.013Z,55.00
2018-07-11T17:15:56.868Z,55.00
2018-07-11T17:18:31.431Z,55.20
2018-07-11T17:21:05.648Z,55.20
2018-07-11T17:23:39.327Z,55.60
2018-07-11T17:26:13.171Z,56.10
2018-07-11T17:28:47.076Z,57.00
2018-07-11T17:31:21.117Z,58.30
2018-07-11T17:33:55.504Z,59.00
2018-07-11T17:36:29.133Z,60.00
2018-07-11T17:39:02.922Z,60.80
2018-07-11T17:41:37.826Z,62.90
2018-07-11T17:44:11.596Z,62.80
2018-07-11T17:46:46.271Z,64.00
2018-07-11T17:49:20.787Z,65.10
2018-07-11T17:51:55.432Z,64.30
2018-07-11T17:54:30.014Z,65.10
2018-07-11T17:57:04.652Z,65.50
2018-07-11T17:59:38.541Z,65.50
2018-07-11T18:02:12.308Z,66.50
2018-07-11T18:04:46.797Z,66.00
2018-07-11T18:07:20.608Z,66.00
2018-07-11T18:09:54.477Z,65.90
2018-07-11T18:12:29.004Z,65.80
2018-07-11T18:15:02.806Z,65.80
2018-07-11T18:17:36.606Z,65.90
2018-07-11T18:20:11.140Z,66.60
2018-07-11T18:22:45.674Z,68.50
2018-07-11T18:25:19.385Z,67.70
2018-07-11T18:27:54.009Z,68.80
2018-07-11T18:30:27.729Z,68.70
2018-07-11T18:33:02.260Z,69.80
2018-07-11T18:35:36.055Z,69.70
2018-07-11T18:38:09.817Z,69.90
2018-07-11T18:40:43.533Z,70.10
2018-07-11T18:43:17.129Z,70.90
2018-07-11T18:45:50.789Z,71.20
2018-07-11T18:48:24.855Z,73.20
2018-07-11T18:50:59.400Z,75.80
2018-07-11T18:53:33.393Z,75.80
2018-07-11T18:56:07.189Z,76.20
2018-07-11T18:58:41.085Z,76.60
2018-07-11T19:01:15.608Z,77.70
2018-07-11T19:03:49.343Z,77.70
2018-07-11T19:06:23.552Z,77.80
2018-07-11T19:08:57.764Z,80.40
2018-07-11T19:11:32.421Z,80.60
2018-07-11T19:14:06.299Z,80.60
2018-07-11T19:16:40.137Z,81.00
2018-07-11T19:19:13.728Z,81.90
2018-07-11T19:21:47.648Z,82.50
2018-07-11T19:24:21.506Z,83.00
2018-07-11T19:26:55.203Z,83.80
2018-07-11T19:29:29.668Z,85.50
2018-07-11T19:32:03.388Z,85.50
2018-07-11T19:34:37.210Z,86.00
2018-07-11T19:37:11.883Z,86.60
2018-07-11T19:39:46.514Z,87.00
2018-07-11T19:42:20.370Z,87.00
2018-07-11T19:44:54.028Z,85.70
2018-07-11T19:47:28.581Z,86.40
2018-07-11T19:50:02.408Z,86.30
2018-07-11T19:52:36.105Z,85.90
2018-07-11T19:55:09.780Z,86.00
2018-07-11T19:57:43.512Z,85.30
2018-07-11T20:00:17.187Z,84.80
2018-07-11T20:02:51.772Z,87.60
2018-07-11T20:05:25.468Z,87.10
2018-07-11T20:08:01.292Z,86.50
2018-07-11T20:10:35.157Z,86.50
2018-07-11T20:13:08.841Z,87.80
2018-07-11T20:15:43.374Z,87.70
2018-07-11T20:18:17.235Z,87.60
2018-07-11T20:20:51.016Z,87.80
2018-07-11T20:23:25.620Z,90.90
2018-07-11T20:25:59.525Z,90.90
2018-07-11T20:28:33.120Z,91.50
2018-07-11T20:31:06.934Z,92.10
2018-07-11T20:33:41.441Z,94.00
2018-07-11T20:36:15.179Z,93.90
2018-07-11T20:38:49.809Z,96.30
2018-07-11T20:41:24.201Z,96.60
2018-07-11T20:43:58.032Z,96.50
2018-07-11T20:46:32.770Z,97.00
2018-07-11T20:49:06.568Z,97.00
2018-07-11T20:51:40.216Z,97.00
2018-07-11T20:54:14.078Z,97.30
2018-07-11T20:56:48.752Z,97.80
2018-07-11T20:59:34.532Z,97.70
2018-07-11T21:02:20.354Z,97.90
2018-07-11T21:04:54.149Z,98.00
2018-07-11T21:07:28.561Z,98.20
2018-07-11T21:10:03.233Z,98.30
2018-07-11T21:12:37.824Z,98.70
2018-07-11T21:15:11.612Z,98.70
2018-07-11T21:17:45.388Z,99.20
2018-07-11T21:20:19.324Z,99.20
2018-07-11T21:22:53.120Z,99.50
2018-07-11T21:25:26.904Z,99.90
2018-07-11T21:28:00.812Z,99.90
2018-07-11T21:30:34.690Z,99.50
2018-07-11T21:33:08.338Z,99.20
2018-07-11T21:35:42.101Z,99.60
2018-07-11T21:38:15.758Z,99.30
2018-07-11T21:40:49.656Z,99.60
2018-07-11T21:43:24.212Z,99.90
2018-07-11T21:45:58.086Z,99.90
2018-07-11T21:48:31.960Z,99.90
2018-07-11T21:51:05.860Z,99.90
2018-07-11T21:53:39.641Z,99.90
2018-07-11T21:56:13.379Z,99.90
2018-07-11T21:58:48.047Z,99.90
2018-07-11T22:01:21.720Z,99.90
2018-07-11T22:03:55.400Z,99.90
2018-07-11T22:06:29.315Z,99.90
2018-07-11T22:09:02.939Z,99.90
2018-07-11T22:11:36.726Z,99.90
2018-07-11T22:14:10.557Z,99.90
2018-07-11T22:16:44.513Z,99.90
2018-07-11T22:19:18.349Z,99.90
2018-07-11T22:21:51.694Z,99.90
2018-07-11T22:24:24.897Z,99.90
2018-07-11T22:26:59.076Z,99.90
2018-07-11T22:29:32.263Z,99.90
2018-07-11T22:32:05.494Z,99.90
2018-07-11T22:34:38.940Z,99.90
2018-07-11T22:37:12.096Z,99.90
2018-07-11T22:39:45.293Z,99.90
2018-07-11T22:42:18.700Z,99.90
2018-07-11T22:44:51.941Z,99.90
2018-07-11T22:47:25.238Z,99.90
2018-07-11T22:49:58.404Z,99.90
2018-07-11T22:52:31.701Z,99.90
2018-07-11T22:55:05.830Z,99.90
2018-07-11T22:57:39.672Z,99.90
2018-07-11T23:00:12.847Z,99.90
2018-07-11T23:02:46.028Z,99.90
2018-07-11T23:05:19.304Z,99.90
2018-07-11T23:07:52.498Z,99.90
2018-07-11T23:10:25.708Z,99.90
2018-07-11T23:12:59.078Z,99.90
2018-07-11T23:15:32.272Z,99.90
2018-07-11T23:18:05.646Z,99.90
2018-07-11T23:20:38.794Z,99.90
2018-07-11T23:23:12.848Z,99.90
2018-07-11T23:25:46.092Z,99.90
2018-07-11T23:28:19.287Z,99.90
2018-07-11T23:30:53.247Z,99.90
2018-07-11T23:33:27.239Z,99.90
2018-07-11T23:36:00.433Z,99.90
2018-07-11T23:38:34.504Z,99.90
2018-07-11T23:41:07.883Z,99.90
2018-07-11T23:43:41.840Z,99.90
2018-07-11T23:46:15.804Z,99.90
2018-07-11T23:48:49.157Z,99.90
2018-07-11T23:51:23.077Z,99.90
2018-07-11T23:53:56.349Z,99.90
2018-07-11T23:56:30.406Z,99.90
2018-07-11T23:59:03.756Z,99.90
